Time;durP1;ratioP1;P1;durP2;ratioP2;P2;SDS_P1;SDS_P2;PMS_P1;PMS_P2;Temp;Humidity;BMP_temperature;BMP_pressure;BME280_temperature;BME280_humidity;BME280_pressure;Samples;Min_cycle;Max_cycle;Signal;HPM_P1;HPM_P2
2020/12/06 00:01:44;;;;;;;9.38;6.97;;;3.80;79.30;;;;;;5074471;28;20450;-91
2020/12/06 00:04:11;;;;;;;9.70;6.80;;;3.80;79.30;;;;;;5073936;28;20492;-91
2020/12/06 00:06:37;;;;;;;10.07;7.10;;;3.80;79.30;;;;;;5074320;28;20461;-91
2020/12/06 00:09:07;;;;;;;8.27;5.82;;;3.80;79.30;;;;;;5057501;28;20477;-91
2020/12/06 00:11:33;;;;;;;8.35;6.57;;;3.90;79.40;;;;;;5085008;28;20368;-92
2020/12/06 00:14:00;;;;;;;8.35;6.50;;;3.90;79.40;;;;;;5074436;28;20462;-90
2020/12/06 00:16:27;;;;;;;12.27;8.02;;;3.80;79.30;;;;;;5073956;28;20525;-93
2020/12/06 00:18:54;;;;;;;10.52;6.35;;;3.80;79.40;;;;;;5074150;28;20504;-90
2020/12/06 00:21:21;;;;;;;7.93;6.13;;;3.80;79.50;;;;;;5074172;28;20446;-90
2020/12/06 00:23:48;;;;;;;12.85;7.97;;;3.80;79.50;;;;;;5073863;28;20334;-91
2020/12/06 00:26:25;;;;;;;8.77;6.57;;;3.80;79.50;;;;;;5073846;28;20473;-92
2020/12/06 00:28:53;;;;;;;8.70;6.60;;;3.90;79.50;;;;;;5056241;28;20020;-92
2020/12/06 00:31:19;;;;;;;9.50;6.90;;;3.90;79.40;;;;;;5073879;28;20013;-91
2020/12/06 00:33:46;;;;;;;11.23;8.05;;;3.90;79.40;;;;;;5074349;28;20522;-92
2020/12/06 00:36:13;;;;;;;9.00;6.50;;;3.90;79.40;;;;;;5074495;28;20450;-91
2020/12/06 00:38:41;;;;;;;11.10;8.35;;;3.80;79.30;;;;;;5058296;28;20446;-91
2020/12/06 00:41:12;;;;;;;8.38;5.90;;;3.80;79.30;;;;;;5078045;28;20120;-91
2020/12/06 00:43:38;;;;;;;7.85;6.07;;;3.80;79.40;;;;;;5077525;28;20374;-92
2020/12/06 00:46:05;;;;;;;8.23;6.18;;;3.80;79.50;;;;;;5077356;28;20013;-91
2020/12/06 00:48:31;;;;;;;8.27;6.38;;;3.80;79.40;;;;;;5076806;28;20445;-91
2020/12/06 00:50:58;;;;;;;8.82;6.53;;;3.80;79.50;;;;;;5076875;28;20104;-90
2020/12/06 00:53:24;;;;;;;7.43;5.97;;;3.80;79.50;;;;;;5059443;28;20423;-91
2020/12/06 00:55:50;;;;;;;10.48;7.40;;;3.80;79.60;;;;;;5076985;28;20512;-90
2020/12/06 00:58:16;;;;;;;10.95;7.88;;;3.80;79.70;;;;;;5076915;28;20362;-91
2020/12/06 01:00:42;;;;;;;8.77;6.68;;;3.80;79.70;;;;;;5076684;28;20023;-90
2020/12/06 01:03:08;;;;;;;8.88;6.18;;;3.80;79.60;;;;;;5077136;28;20354;-91
2020/12/06 01:05:34;;;;;;;8.65;5.90;;;3.80;79.60;;;;;;5076823;28;20077;-91
2020/12/06 01:08:00;;;;;;;8.45;6.28;;;3.80;79.60;;;;;;5076428;28;20450;-91
2020/12/06 01:10:26;;;;;;;9.43;7.30;;;3.80;79.60;;;;;;5076569;28;20454;-91
2020/12/06 01:16:15;;;;;;;10.13;7.18;;;3.80;79.60;;;;;;5077024;28;20120;-89
2020/12/06 01:18:41;;;;;;;6.82;5.57;;;3.70;79.60;;;;;;5076254;28;20394;-90
2020/12/06 01:21:10;;;;;;;10.35;6.72;;;3.80;79.70;;;;;;5076007;28;20099;-90
2020/12/06 01:23:36;;;;;;;9.80;7.07;;;3.80;79.70;;;;;;5076316;28;20458;-90
2020/12/06 01:29:24;;;;;;;8.38;6.28;;;3.80;79.70;;;;;;5079038;28;20031;-90
2020/12/06 01:31:50;;;;;;;7.20;5.65;;;3.80;79.60;;;;;;5059089;28;20454;-91
2020/12/06 01:34:17;;;;;;;9.82;6.47;;;3.80;79.60;;;;;;5076249;28;20464;-90
2020/12/06 01:36:43;;;;;;;9.20;6.82;;;3.80;79.60;;;;;;5076343;28;20123;-90
2020/12/06 01:49:36;;;;;;;10.82;7.25;;;3.80;79.70;;;;;;4961584;28;20042;-93
2020/12/06 01:52:59;;;;;;;;;;;;;;;;;;;;;
2020/12/06 02:04:34;;;;;;;;;;;;;;;;;;;;;
2020/12/06 05:25:39;;;;;;;;;;;;;;;;;;;;;
2020/12/06 05:55:03;;;;;;;9.90;6.65;;;3.70;78.00;;;;;;5030553;28;20065;-89
2020/12/06 05:57:31;;;;;;;10.27;7.07;;;3.60;78.00;;;;;;5015433;28;20032;-91
2020/12/06 06:41:33;;;;;;;9.48;6.55;;;3.60;78.70;;;;;;4970550;28;20049;-92
2020/12/06 06:44:34;;;;;;;;;;;;;;;;;;;;;
2020/12/06 06:51:45;;;;;;;;;;;;;;;;;;;;;
2020/12/06 06:55:31;;;;;;;;;;;;;;;;;;;;;
2020/12/06 07:05:02;;;;;;;12.18;8.57;;;3.50;79.00;;;;;;4953922;29;20102;-93
2020/12/06 07:08:17;;;;;;;;;;;;;;;;;;;;;
2020/12/06 07:19:01;;;;;;;10.52;7.40;;;3.40;79.70;;;;;;4935965;28;20027;-92
2020/12/06 07:22:09;;;;;;;12.93;9.15;;;3.30;79.60;;;;;;4943117;28;20046;-92
2020/12/06 07:35:50;;;;;;;13.37;8.53;;;3.20;80.20;;;;;;4927688;28;20042;-94
2020/12/06 07:39:24;;;;;;;;;;;;;;;;;;;;;
2020/12/06 07:42:41;;;;;;;11.82;8.27;;;3.20;80.40;;;;;;5025988;28;20022;-91
2020/12/06 07:55:39;;;;;;;10.88;7.25;;;3.30;80.80;;;;;;4949854;28;20723;-92
2020/12/06 07:58:52;;;;;;;9.20;6.70;;;3.30;80.70;;;;;;5014925;28;20037;-93
2020/12/06 08:01:45;;;;;;;9.70;6.53;;;3.30;80.50;;;;;;5015708;28;20040;-93
2020/12/06 08:42:12;;;;;;;11.18;7.25;;;3.80;80.00;;;;;;5040837;28;20032;-92
2020/12/06 08:45:33;;;;;;;;;;;;;;;;;;;;;
2020/12/06 08:52:21;;;;;;;14.35;9.38;;;3.70;80.10;;;;;;4973544;28;20031;-92
2020/12/06 08:55:01;;;;;;;;;;;;;;;;;;;;;
2020/12/06 09:01:46;;;;;;;10.98;7.10;;;3.50;80.50;;;;;;4982264;28;20121;-94
2020/12/06 09:05:06;;;;;;;11.25;7.40;;;3.60;80.60;;;;;;5049661;28;20471;-93
2020/12/06 11:00:41;;;;;;;11.20;8.27;;;5.40;78.70;;;;;;5105998;28;20114;-94
2020/12/06 11:10:14;;;;;;;10.63;7.22;;;5.60;78.40;;;;;;4995001;28;20038;-94
2020/12/06 11:12:42;;;;;;;10.82;7.75;;;5.70;78.40;;;;;;5053932;28;20028;-95
2020/12/06 11:15:11;;;;;;;11.80;7.85;;;5.70;78.40;;;;;;5063549;28;20024;-90
2020/12/06 11:17:39;;;;;;;10.65;7.85;;;5.70;78.40;;;;;;5088002;28;20040;-91
2020/12/06 11:20:05;;;;;;;10.77;8.18;;;5.80;78.30;;;;;;5061832;28;20029;-89
2020/12/06 11:22:45;;;;;;;10.95;7.22;;;5.80;78.20;;;;;;5065977;28;20091;-89
2020/12/06 11:32:41;;;;;;;11.75;7.97;;;5.80;78.20;;;;;;4987474;28;20065;-95
2020/12/06 11:35:50;;;;;;;;;;;;;;;;;;;;;
2020/12/06 11:38:34;;;;;;;11.50;7.13;;;6.00;78.20;;;;;;5107316;28;20046;-94
2020/12/06 11:47:26;;;;;;;12.63;8.30;;;6.00;77.80;;;;;;5134308;27;20129;-94
2020/12/06 11:50:16;;;;;;;13.73;9.60;;;6.00;77.70;;;;;;5115851;27;20035;-94
2020/12/06 11:52:43;;;;;;;9.27;6.95;;;5.90;77.70;;;;;;5495801;22;20041;-95
2020/12/06 11:55:10;;;;;;;9.45;6.57;;;6.10;77.80;;;;;;5050990;28;20036;-95
2020/12/06 11:57:58;;;;;;;9.35;6.55;;;6.10;77.70;;;;;;5052921;28;20029;-92
2020/12/06 12:03:23;;;;;;;11.02;7.82;;;6.20;78.40;;;;;;5047912;28;20072;-93
2020/12/06 12:05:58;;;;;;;;;;;;;;;;;;;;;
2020/12/06 12:08:46;;;;;;;12.50;8.50;;;6.30;77.80;;;;;;5091283;28;20079;-92
2020/12/06 12:11:12;;;;;;;11.27;8.02;;;6.20;77.70;;;;;;5071634;28;20039;-94
2020/12/06 12:13:39;;;;;;;12.60;9.10;;;6.30;77.70;;;;;;5071866;28;20033;-94
2020/12/06 12:16:16;;;;;;;9.68;6.97;;;6.20;77.70;;;;;;5082885;28;20020;-93
2020/12/06 12:18:45;;;;;;;11.75;7.50;;;6.20;77.80;;;;;;5075887;28;20025;-91
2020/12/06 12:21:11;;;;;;;15.18;10.00;;;6.10;77.80;;;;;;5055737;28;20076;-95
2020/12/06 12:23:41;;;;;;;12.45;8.57;;;6.10;78.00;;;;;;5086103;28;20028;-92
2020/12/06 12:26:42;;;;;;;13.35;8.50;;;6.10;78.10;;;;;;5089300;28;20032;-96
2020/12/06 12:31:46;;;;;;;15.02;10.38;;;6.10;78.10;;;;;;5043308;28;20049;-94
2020/12/06 12:34:22;;;;;;;13.25;9.15;;;6.20;78.20;;;;;;5033830;28;20052;-96
2020/12/06 12:39:19;;;;;;;15.63;10.60;;;6.10;78.10;;;;;;5030697;28;20046;-96
2020/12/06 12:41:45;;;;;;;12.18;8.50;;;6.10;78.20;;;;;;5126237;22;20499;-87
2020/12/06 12:44:16;;;;;;;11.45;7.38;;;6.10;78.30;;;;;;5051653;28;20064;-95
2020/12/06 12:46:58;;;;;;;;;;;;;;;;;;;;;
2020/12/06 12:49:54;;;;;;;12.20;8.38;;;6.20;78.20;;;;;;5317700;22;20027;-95
2020/12/06 12:52:38;;;;;;;12.48;8.60;;;6.10;78.20;;;;;;5070441;28;20044;-96
2020/12/06 12:55:19;;;;;;;;;;;;;;;;;;;;;
2020/12/06 12:57:48;;;;;;;11.77;8.38;;;6.10;78.20;;;;;;5032544;28;20033;-94
2020/12/06 13:00:13;;;;;;;11.13;7.78;;;6.10;78.30;;;;;;5003729;28;20022;-96
2020/12/06 13:02:39;;;;;;;11.20;7.97;;;6.20;78.40;;;;;;5009040;28;20017;-95
2020/12/06 13:05:06;;;;;;;8.55;6.35;;;6.20;78.30;;;;;;5014057;28;20053;-94
2020/12/06 13:08:01;;;;;;;7.60;6.10;;;6.30;78.40;;;;;;5014519;28;20029;-96
2020/12/06 13:10:28;;;;;;;8.38;5.90;;;6.30;78.30;;;;;;5048395;28;20101;-96
2020/12/06 13:13:14;;;;;;;10.25;7.35;;;6.30;78.20;;;;;;5034897;28;20034;-96
2020/12/06 13:19:20;;;;;;;7.55;5.53;;;6.30;78.30;;;;;;5030501;28;20033;-95
2020/12/06 13:22:29;;;;;;;9.55;6.78;;;6.40;78.20;;;;;;5034273;28;20017;-91
2020/12/06 13:25:33;;;;;;;9.35;6.60;;;6.40;78.20;;;;;;5038201;28;20033;-90
2020/12/06 13:27:59;;;;;;;11.75;7.47;;;6.30;78.20;;;;;;5004601;28;20042;-95
2020/12/06 13:30:59;;;;;;;9.02;6.43;;;6.40;78.30;;;;;;5014555;28;20008;-96
2020/12/06 13:33:27;;;;;;;8.35;6.28;;;6.40;78.30;;;;;;5020968;28;20088;-93
2020/12/06 13:35:53;;;;;;;10.63;7.63;;;6.40;78.40;;;;;;5040314;28;20030;-96
2020/12/06 13:39:06;;;;;;;10.10;6.82;;;6.30;78.30;;;;;;5031097;28;20025;-96
2020/12/06 13:47:15;;;;;;;;;;;;;;;;;;;;;
2020/12/06 13:49:59;;;;;;;9.02;6.45;;;6.40;78.50;;;;;;5050690;28;20020;-95
2020/12/06 14:00:53;;;;;;;;;;;;;;;;;;;;;
2020/12/06 14:22:07;;;;;;;10.52;7.50;;;6.30;79.20;;;;;;5082048;28;20544;-91
2020/12/06 14:24:33;;;;;;;10.93;7.68;;;6.30;79.30;;;;;;5103234;28;20060;-92
2020/12/06 14:26:58;;;;;;;11.30;7.80;;;6.20;79.50;;;;;;5070303;28;20469;-92
2020/12/06 14:29:24;;;;;;;9.13;6.65;;;6.20;79.60;;;;;;5088172;28;20078;-92
2020/12/06 14:31:49;;;;;;;10.27;6.90;;;6.20;80.40;;;;;;5070767;28;20105;-91
2020/12/06 14:34:17;;;;;;;9.15;6.70;;;6.20;79.80;;;;;;5088063;28;20016;-90
2020/12/06 14:36:43;;;;;;;10.55;7.88;;;6.10;80.50;;;;;;5088241;28;20070;-92
2020/12/06 14:39:09;;;;;;;10.50;6.68;;;6.10;80.00;;;;;;5062656;28;20091;-90
2020/12/06 14:41:34;;;;;;;12.32;8.57;;;6.10;80.10;;;;;;5068967;28;20035;-91
2020/12/06 14:44:00;;;;;;;11.60;8.48;;;6.00;80.20;;;;;;5088696;28;20020;-92
2020/12/06 14:46:26;;;;;;;18.73;12.20;;;6.20;80.40;;;;;;5090290;28;20426;-94
2020/12/06 14:48:51;;;;;;;17.08;11.80;;;6.00;80.30;;;;;;5069948;28;20028;-91
2020/12/06 14:51:17;;;;;;;17.75;12.27;;;6.00;80.50;;;;;;5070623;28;20027;-90
2020/12/06 14:53:43;;;;;;;13.60;9.65;;;6.00;80.60;;;;;;5088708;28;20028;-91
2020/12/06 14:56:09;;;;;;;13.73;9.57;;;6.00;80.60;;;;;;5089596;28;20019;-89
2020/12/06 14:58:35;;;;;;;10.52;7.78;;;6.00;80.80;;;;;;5086216;28;20606;-93
2020/12/06 15:01:00;;;;;;;10.77;7.57;;;6.00;80.80;;;;;;5069532;28;20131;-90
2020/12/06 15:03:26;;;;;;;10.70;7.85;;;6.10;80.90;;;;;;5089105;28;20492;-91
2020/12/06 15:05:53;;;;;;;15.05;10.63;;;6.00;81.40;;;;;;5072981;28;20172;-91
2020/12/06 15:08:18;;;;;;;13.68;9.27;;;6.10;80.90;;;;;;5085498;28;20527;-90
2020/12/06 15:10:45;;;;;;;9.00;6.55;;;6.00;80.90;;;;;;5072005;28;20087;-93
2020/12/06 15:13:11;;;;;;;9.75;7.25;;;6.00;81.00;;;;;;5071838;28;20111;-92
2020/12/06 15:15:37;;;;;;;11.50;8.43;;;5.90;81.10;;;;;;5069945;28;20504;-93
2020/12/06 15:18:03;;;;;;;10.23;7.20;;;6.00;81.20;;;;;;5081773;28;20222;-94
2020/12/06 15:20:46;;;;;;;13.52;9.20;;;5.90;81.20;;;;;;5082378;28;20044;-90
2020/12/06 15:23:20;;;;;;;9.75;6.93;;;6.00;81.30;;;;;;5067419;28;20559;-92
2020/12/06 15:25:50;;;;;;;11.05;8.38;;;6.10;81.30;;;;;;5075366;28;20054;-94
2020/12/06 15:28:37;;;;;;;12.45;8.98;;;6.00;81.30;;;;;;5074081;28;20020;-92
2020/12/06 15:31:07;;;;;;;10.40;7.88;;;6.00;81.50;;;;;;5085892;28;20054;-92
2020/12/06 15:33:33;;;;;;;9.77;6.63;;;5.90;81.50;;;;;;5076725;28;20027;-91
2020/12/06 15:36:00;;;;;;;11.40;7.60;;;5.90;81.60;;;;;;5094037;28;20067;-93
2020/12/06 18:28:37;;;;;;;11.20;7.55;;;5.80;83.50;;;;;;4950329;29;20122;-91
2020/12/06 18:34:58;;;;;;;;;;;;;;;;;;;;;
2020/12/06 18:37:40;;;;;;;;;;;;;;;;;;;;;
2020/12/06 18:40:23;;;;;;;9.77;6.80;;;5.80;83.70;;;;;;5004902;28;20110;-94
2020/12/06 18:49:25;;;;;;;10.43;7.50;;;5.80;83.90;;;;;;5066612;28;20029;-92
2020/12/06 18:52:05;;;;;;;;;;;;;;;;;;;;;
2020/12/06 18:54:31;;;;;;;15.15;9.13;;;5.90;84.00;;;;;;5081107;28;20029;-95
2020/12/06 18:56:59;;;;;;;14.88;8.88;;;5.80;84.00;;;;;;5090107;28;20020;-94
2020/12/06 18:59:34;;;;;;;10.45;6.97;;;5.80;84.00;;;;;;5070291;28;20033;-95
2020/12/06 19:01:59;;;;;;;8.82;5.68;;;5.90;84.10;;;;;;5093908;28;20043;-95
2020/12/06 19:04:28;;;;;;;9.38;6.80;;;5.90;83.90;;;;;;5073051;28;20021;-95
2020/12/06 21:25:14;;;;;;;12.88;8.23;;;6.40;84.90;;;;;;5044753;28;20135;-93
2020/12/06 21:27:45;;;;;;;17.75;10.05;;;6.30;84.90;;;;;;5044909;28;20475;-93
2020/12/06 22:17:07;;;;;;;;;;;;;;;;;;;;;
2020/12/06 22:30:03;;;;;;;;;;;;;;;;;;;;;
2020/12/06 22:43:56;;;;;;;18.13;10.80;;;6.10;84.80;;;;;;5194195;22;20045;-91
